Time;durP1;ratioP1;P1;durP2;ratioP2;P2;SDS_P1;SDS_P2;PMS_P1;PMS_P2;Temp;Humidity;BMP_temperature;BMP_pressure;BME280_temperature;BME280_humidity;BME280_pressure;Samples;Min_cycle;Max_cycle;Signal;HPM_P1;HPM_P2
2023/07/01 00:00:57;;;;;;;6.43;2.27;;;;;;;17.27;100.00;100442.97;5035624;28;20911;-74
2023/07/01 00:03:23;;;;;;;9.40;3.57;;;;;;;17.19;100.00;100447.44;5035812;28;20451;-74
2023/07/01 00:05:51;;;;;;;7.87;3.20;;;;;;;17.26;100.00;100438.59;5035560;28;20447;-74
2023/07/01 00:08:17;;;;;;;8.77;3.33;;;;;;;17.32;100.00;100435.28;5035717;28;20522;-74
2023/07/01 00:10:44;;;;;;;8.63;3.37;;;;;;;17.37;100.00;100439.69;5035745;28;20475;-74
2023/07/01 00:13:10;;;;;;;9.13;3.60;;;;;;;17.35;100.00;100429.13;5035971;28;20445;-74
2023/07/01 00:15:37;;;;;;;9.40;3.47;;;;;;;17.32;100.00;100424.31;5035620;28;20443;-75
2023/07/01 00:18:05;;;;;;;8.87;4.00;;;;;;;17.39;100.00;100434.66;5034848;28;20494;-74
2023/07/01 00:20:32;;;;;;;9.20;3.57;;;;;;;17.42;100.00;100430.44;5035572;28;20446;-74
2023/07/01 00:22:58;;;;;;;10.53;3.90;;;;;;;17.44;100.00;100430.88;5035225;28;20447;-75
2023/07/01 00:25:25;;;;;;;16.50;3.77;;;;;;;17.49;100.00;100430.63;5035198;28;20438;-75
2023/07/01 00:34:57;;;;;;;8.00;3.20;;;;;;;17.57;100.00;100418.69;5028374;23;20498;-70
2023/07/01 00:37:24;;;;;;;8.03;3.07;;;;;;;17.58;100.00;100414.81;5015175;28;21013;-71
2023/07/01 00:39:51;;;;;;;7.50;2.80;;;;;;;17.61;100.00;100422.31;5015415;28;20478;-71
2023/07/01 00:42:17;;;;;;;11.20;3.20;;;;;;;17.62;100.00;100421.19;5015106;28;20950;-70
2023/07/01 00:44:44;;;;;;;8.80;2.97;;;;;;;17.57;100.00;100413.22;5015344;28;20448;-69
2023/07/01 00:47:12;;;;;;;8.40;3.17;;;;;;;17.59;100.00;100411.72;5015257;28;20959;-70
2023/07/01 00:49:39;;;;;;;8.77;3.27;;;;;;;17.60;100.00;100410.56;5015127;28;20495;-72
2023/07/01 00:52:08;;;;;;;6.70;2.67;;;;;;;17.64;100.00;100403.25;5015268;28;20450;-70
2023/07/01 00:54:36;;;;;;;8.27;3.40;;;;;;;17.60;100.00;100407.03;5015288;28;20535;-71
2023/07/01 00:57:04;;;;;;;7.67;2.53;;;;;;;17.62;100.00;100396.53;5014757;28;20547;-70
2023/07/01 00:59:30;;;;;;;8.20;3.60;;;;;;;17.61;100.00;100398.47;5015053;28;20451;-70
2023/07/01 01:02:03;;;;;;;7.20;2.67;;;;;;;17.61;100.00;100400.41;5015092;28;20436;-70
2023/07/01 01:04:36;;;;;;;8.03;3.60;;;;;;;17.53;100.00;100388.50;5015082;28;20512;-70
2023/07/01 01:07:06;;;;;;;7.60;2.60;;;;;;;17.50;100.00;100396.63;5014624;28;20471;-70
2023/07/01 01:09:41;;;;;;;7.50;2.87;;;;;;;17.51;100.00;100388.03;5014936;28;20480;-71
2023/07/01 01:12:11;;;;;;;7.40;2.60;;;;;;;17.52;100.00;100381.41;5014932;28;20532;-71
2023/07/01 01:14:39;;;;;;;8.00;2.70;;;;;;;17.51;100.00;100379.81;5014834;28;20455;-70
2023/07/01 01:17:12;;;;;;;7.97;3.30;;;;;;;17.49;100.00;100373.91;5014481;28;20507;-71
2023/07/01 01:19:41;;;;;;;10.03;3.47;;;;;;;17.51;100.00;100385.31;5014778;28;20437;-72
2023/07/01 01:22:16;;;;;;;8.27;3.23;;;;;;;17.44;100.00;100371.41;5014330;28;20448;-70
2023/07/01 01:24:45;;;;;;;7.97;2.60;;;;;;;17.45;100.00;100374.97;5015075;28;20454;-70
2023/07/01 01:27:14;;;;;;;10.07;3.90;;;;;;;17.50;100.00;100369.22;5014276;28;20987;-70
2023/07/01 01:29:42;;;;;;;8.37;3.63;;;;;;;17.49;100.00;100370.38;5013362;28;20490;-70
2023/07/01 01:32:10;;;;;;;7.90;3.10;;;;;;;17.47;100.00;100369.94;5014258;28;21022;-71
2023/07/01 01:34:37;;;;;;;7.57;2.70;;;;;;;17.52;100.00;100362.22;5014202;28;20495;-70
2023/07/01 01:37:07;;;;;;;9.63;3.50;;;;;;;17.53;100.00;100358.38;5014390;28;20893;-71
2023/07/01 01:39:42;;;;;;;8.53;3.37;;;;;;;17.55;100.00;100361.53;5014508;28;20436;-71
2023/07/01 01:42:15;;;;;;;11.53;4.47;;;;;;;17.51;100.00;100357.91;5014496;28;20428;-70
2023/07/01 01:44:47;;;;;;;7.60;2.87;;;;;;;17.52;100.00;100362.22;5014039;28;20477;-71
2023/07/01 01:47:16;;;;;;;10.10;3.90;;;;;;;17.51;100.00;100354.38;5013951;28;20470;-70
2023/07/01 01:49:44;;;;;;;8.40;3.30;;;;;;;17.50;100.00;100352.81;5013994;28;20579;-72
2023/07/01 01:52:15;;;;;;;9.70;3.60;;;;;;;17.39;100.00;100347.81;5014406;28;20463;-70
2023/07/01 01:54:45;;;;;;;13.93;3.73;;;;;;;17.45;100.00;100353.06;5014376;28;20439;-71
2023/07/01 01:57:12;;;;;;;6.93;2.73;;;;;;;17.48;100.00;100341.38;5014330;28;20844;-71
2023/07/01 01:59:39;;;;;;;8.17;2.90;;;;;;;17.50;100.00;100342.63;5014261;28;20524;-72
2023/07/01 02:02:07;;;;;;;6.87;2.60;;;;;;;17.41;100.00;100342.03;5014599;28;20877;-72
2023/07/01 02:04:34;;;;;;;10.63;3.27;;;;;;;17.46;100.00;100340.97;5014059;28;20527;-72
2023/07/01 02:07:00;;;;;;;7.27;2.37;;;;;;;17.49;100.00;100341.06;5013706;28;20502;-71
2023/07/01 02:09:28;;;;;;;6.70;2.10;;;;;;;17.48;100.00;100344.13;5013967;28;20567;-71
2023/07/01 02:11:55;;;;;;;7.10;2.73;;;;;;;17.44;100.00;100340.50;5013972;28;20475;-71
2023/07/01 02:14:21;;;;;;;7.13;2.67;;;;;;;17.48;100.00;100333.97;5013816;28;20531;-70
2023/07/01 02:16:48;;;;;;;7.40;3.10;;;;;;;17.51;100.00;100327.00;5013714;28;20464;-71
2023/07/01 02:19:16;;;;;;;8.47;3.03;;;;;;;17.46;100.00;100330.78;5013574;28;20912;-71
2023/07/01 02:21:43;;;;;;;6.30;2.60;;;;;;;17.43;100.00;100328.75;5013463;28;20540;-71
2023/07/01 02:24:10;;;;;;;9.47;3.70;;;;;;;17.47;100.00;100331.59;5013659;28;20830;-70
2023/07/01 02:26:37;;;;;;;7.23;2.87;;;;;;;17.47;100.00;100329.66;5013595;28;20820;-71
2023/07/01 02:29:03;;;;;;;9.50;3.23;;;;;;;17.51;100.00;100332.47;5013289;28;20553;-70
2023/07/01 02:31:30;;;;;;;7.43;2.80;;;;;;;17.55;100.00;100325.13;5013648;28;20448;-70
2023/07/01 02:34:00;;;;;;;8.10;3.57;;;;;;;17.56;100.00;100329.47;5013319;28;20550;-71
2023/07/01 02:36:28;;;;;;;9.30;2.80;;;;;;;17.56;100.00;100330.25;5013709;28;20429;-69
2023/07/01 02:38:55;;;;;;;7.03;2.33;;;;;;;17.50;100.00;100319.94;5013479;28;20448;-70
2023/07/01 02:41:22;;;;;;;7.53;3.20;;;;;;;17.54;100.00;100320.81;5013123;28;20534;-69
2023/07/01 02:43:48;;;;;;;7.90;3.10;;;;;;;17.55;100.00;100319.66;5013113;28;20484;-70
2023/07/01 02:46:15;;;;;;;8.33;3.17;;;;;;;17.57;100.00;100314.63;5013364;28;20448;-69
2023/07/01 02:48:42;;;;;;;10.40;3.57;;;;;;;17.60;100.00;100324.88;5013216;28;20551;-70
2023/07/01 02:51:08;;;;;;;9.10;2.67;;;;;;;17.56;100.00;100316.56;5013108;28;20535;-69
2023/07/01 02:53:37;;;;;;;8.37;3.53;;;;;;;17.53;100.00;100302.78;5012958;28;20978;-70
2023/07/01 02:56:04;;;;;;;6.90;2.80;;;;;;;17.52;100.00;100312.16;5013409;28;20535;-69
2023/07/01 02:58:30;;;;;;;8.77;3.63;;;;;;;17.52;100.00;100306.66;5013189;28;20468;-69
2023/07/01 03:00:57;;;;;;;7.90;3.17;;;;;;;17.52;100.00;100295.72;5013347;28;20531;-70
2023/07/01 03:03:24;;;;;;;9.13;3.43;;;;;;;17.49;100.00;100297.25;5013225;28;20472;-70
2023/07/01 03:05:50;;;;;;;8.37;3.17;;;;;;;17.45;100.00;100298.31;5013194;28;20451;-69
2023/07/01 03:08:17;;;;;;;10.50;4.47;;;;;;;17.39;100.00;100300.50;5012822;28;20494;-69
2023/07/01 03:10:45;;;;;;;7.13;3.30;;;;;;;17.39;100.00;100298.53;5012706;28;21011;-69
2023/07/01 03:13:12;;;;;;;10.60;4.13;;;;;;;17.42;100.00;100299.00;5013188;28;20450;-70
2023/07/01 03:15:38;;;;;;;8.50;3.57;;;;;;;17.43;100.00;100297.84;5013102;28;20475;-69
2023/07/01 03:18:05;;;;;;;9.80;4.27;;;;;;;17.41;100.00;100290.00;5012833;28;20995;-69
2023/07/01 03:20:31;;;;;;;11.50;3.63;;;;;;;17.36;100.00;100293.78;5013033;28;20884;-69
2023/07/01 03:22:58;;;;;;;7.00;2.80;;;;;;;17.34;100.00;100290.59;5012682;28;21013;-68
2023/07/01 03:25:25;;;;;;;9.70;3.93;;;;;;;17.36;100.00;100288.31;5013055;28;20884;-69
2023/07/01 03:27:52;;;;;;;9.20;3.80;;;;;;;17.33;100.00;100288.22;5012584;28;20507;-69
2023/07/01 03:30:21;;;;;;;9.53;3.77;;;;;;;17.27;100.00;100290.44;5013084;28;20498;-70
2023/07/01 03:32:49;;;;;;;8.47;3.70;;;;;;;17.24;100.00;100282.94;5012893;28;20993;-69
2023/07/01 03:35:16;;;;;;;10.30;3.40;;;;;;;17.26;100.00;100299.78;5012993;28;20462;-69
2023/07/01 03:37:45;;;;;;;8.37;4.07;;;;;;;17.21;100.00;100297.31;5013099;28;20563;-70
2023/07/01 03:40:12;;;;;;;10.20;4.53;;;;;;;17.19;100.00;100304.31;5013054;28;20439;-69
2023/07/01 03:42:38;;;;;;;8.47;4.10;;;;;;;17.17;100.00;100301.91;5013163;28;20460;-69
2023/07/01 03:45:08;;;;;;;8.53;3.67;;;;;;;17.19;100.00;100294.16;5013133;28;20448;-69
2023/07/01 03:47:35;;;;;;;8.50;3.37;;;;;;;17.22;100.00;100293.44;5013066;28;20500;-70
2023/07/01 03:50:02;;;;;;;8.60;4.37;;;;;;;17.31;100.00;100298.72;5013005;28;20498;-72
2023/07/01 03:52:28;;;;;;;13.60;5.43;;;;;;;17.33;100.00;100289.00;5014787;28;20455;-71
2023/07/01 03:54:56;;;;;;;12.00;4.97;;;;;;;17.37;100.00;100295.38;5016506;28;20440;-70
2023/07/01 03:57:23;;;;;;;11.47;4.93;;;;;;;17.42;100.00;100296.25;5016051;28;21050;-70
2023/07/01 03:59:50;;;;;;;8.83;3.23;;;;;;;17.50;100.00;100295.28;5016101;28;20475;-70
2023/07/01 04:02:18;;;;;;;9.50;3.60;;;;;;;17.51;100.00;100294.91;5016201;28;20442;-71
2023/07/01 04:04:44;;;;;;;18.03;4.33;;;;;;;17.58;100.00;100297.06;5015861;28;20880;-69
2023/07/01 04:07:11;;;;;;;8.20;3.70;;;;;;;17.58;100.00;100291.56;5015653;28;20978;-70
2023/07/01 04:09:38;;;;;;;8.10;3.77;;;;;;;17.57;100.00;100287.22;5015540;28;20479;-71
2023/07/01 04:12:05;;;;;;;10.27;4.87;;;;;;;17.58;100.00;100289.63;5016141;28;20547;-71
2023/07/01 04:14:32;;;;;;;11.33;4.60;;;;;;;17.58;100.00;100288.84;5015844;28;20452;-72
2023/07/01 04:17:00;;;;;;;8.40;4.27;;;;;;;17.59;100.00;100284.94;5015845;28;20872;-71
2023/07/01 04:19:28;;;;;;;9.83;4.10;;;;;;;17.58;100.00;100286.09;5015882;28;20452;-70
2023/07/01 04:21:54;;;;;;;12.00;4.47;;;;;;;17.54;100.00;100286.00;5015524;28;20531;-71
2023/07/01 04:24:21;;;;;;;11.80;4.30;;;;;;;17.53;100.00;100278.94;5015437;28;20971;-71
2023/07/01 04:26:48;;;;;;;10.47;4.13;;;;;;;17.52;100.00;100282.81;5015624;28;20460;-71
2023/07/01 04:29:15;;;;;;;8.87;4.10;;;;;;;17.50;100.00;100273.38;5015621;28;20443;-71
2023/07/01 04:31:41;;;;;;;10.97;4.50;;;;;;;17.53;100.00;100270.72;5015554;28;20538;-72
2023/07/01 04:34:08;;;;;;;10.63;4.57;;;;;;;17.56;100.00;100264.53;5015282;28;20821;-71
2023/07/01 04:36:36;;;;;;;9.37;4.70;;;;;;;17.59;100.00;100257.56;5015447;28;20440;-71
2023/07/01 04:39:03;;;;;;;8.13;3.80;;;;;;;17.54;100.00;100260.56;5015412;28;20514;-71
2023/07/01 04:41:32;;;;;;;9.57;3.70;;;;;;;17.47;100.00;100260.38;5015387;28;20444;-72
2023/07/01 04:43:59;;;;;;;9.23;3.90;;;;;;;17.37;100.00;100257.03;5015040;28;20459;-72
2023/07/01 04:46:25;;;;;;;9.40;4.50;;;;;;;17.39;100.00;100257.47;5015252;28;20523;-71
2023/07/01 04:48:52;;;;;;;10.60;4.63;;;;;;;17.41;100.00;100262.59;5014928;28;20447;-72
2023/07/01 04:51:19;;;;;;;9.17;4.17;;;;;;;17.39;100.00;100260.22;5015204;28;20542;-72
2023/07/01 04:53:47;;;;;;;10.83;4.63;;;;;;;17.39;100.00;100248.47;5014823;28;21028;-72
2023/07/01 04:56:14;;;;;;;9.97;5.13;;;;;;;17.40;100.00;100253.59;5015157;28;20440;-72
2023/07/01 04:58:41;;;;;;;11.30;4.03;;;;;;;17.39;100.00;100259.41;5014889;28;20499;-71
2023/07/01 05:01:08;;;;;;;8.97;4.50;;;;;;;17.44;100.00;100252.88;5014874;28;20832;-71
2023/07/01 05:03:35;;;;;;;13.20;4.60;;;;;;;17.50;100.00;100259.69;5014758;28;20440;-72
2023/07/01 05:06:01;;;;;;;9.57;4.40;;;;;;;17.48;100.00;100257.28;5014569;28;20880;-68
2023/07/01 05:08:28;;;;;;;9.10;4.40;;;;;;;17.48;100.00;100254.53;5014808;28;20466;-70
2023/07/01 05:10:56;;;;;;;11.50;4.93;;;;;;;17.45;100.00;100257.22;5014733;28;20530;-69
2023/07/01 05:13:22;;;;;;;9.10;4.70;;;;;;;17.41;100.00;100251.66;5014621;28;20479;-70
2023/07/01 05:15:49;;;;;;;11.70;5.10;;;;;;;17.43;100.00;100254.03;5015055;28;20444;-71
2023/07/01 05:18:16;;;;;;;15.73;5.90;;;;;;;17.44;100.00;100258.34;5014739;28;20463;-70
2023/07/01 05:20:42;;;;;;;11.90;4.77;;;;;;;17.49;100.00;100252.63;5014662;28;20480;-71
2023/07/01 05:23:09;;;;;;;11.33;5.00;;;;;;;17.48;100.00;100256.50;5014864;28;20452;-71
2023/07/01 05:25:35;;;;;;;13.33;4.90;;;;;;;17.53;100.00;100254.28;5014621;28;20441;-71
2023/07/01 05:28:04;;;;;;;8.33;3.80;;;;;;;17.53;100.00;100254.28;5014462;28;20564;-71
2023/07/01 05:30:30;;;;;;;8.07;3.87;;;;;;;17.57;100.00;100259.84;5015189;28;20508;-70
2023/07/01 05:32:57;;;;;;;10.30;4.50;;;;;;;17.54;100.00;100261.34;5014566;28;20447;-70
2023/07/01 05:35:24;;;;;;;7.97;3.73;;;;;;;17.60;100.00;100270.09;5014428;28;20947;-70
2023/07/01 05:37:50;;;;;;;9.43;4.63;;;;;;;17.65;100.00;100267.06;5014530;28;20466;-71
2023/07/01 05:40:17;;;;;;;9.70;4.40;;;;;;;17.72;100.00;100266.44;5014293;28;20452;-70
2023/07/01 05:42:45;;;;;;;8.63;3.83;;;;;;;17.77;100.00;100268.94;5014187;28;20440;-70
2023/07/01 05:45:13;;;;;;;8.40;3.93;;;;;;;17.80;98.77;100257.28;5014391;28;20440;-71
2023/07/01 05:47:40;;;;;;;11.43;4.43;;;;;;;17.87;99.59;100262.91;5014220;28;20475;-72
2023/07/01 05:50:07;;;;;;;8.93;4.20;;;;;;;17.87;100.00;100260.16;5014149;28;20565;-71
2023/07/01 05:52:34;;;;;;;13.20;3.70;;;;;;;17.91;100.00;100263.78;5013892;28;20856;-67
2023/07/01 05:55:00;;;;;;;11.27;4.00;;;;;;;17.93;100.00;100256.00;5013656;28;20947;-68
2023/07/01 05:57:27;;;;;;;9.20;3.40;;;;;;;17.98;100.00;100254.91;5014095;28;20547;-71
2023/07/01 05:59:54;;;;;;;7.83;4.13;;;;;;;18.04;100.00;100250.72;5013989;28;20448;-73
2023/07/01 06:02:22;;;;;;;7.93;3.67;;;;;;;18.10;97.22;100258.28;5013616;28;20450;-71
2023/07/01 06:04:48;;;;;;;8.80;3.97;;;;;;;18.17;96.55;100254.13;5014171;28;20480;-70
2023/07/01 06:07:15;;;;;;;7.63;3.50;;;;;;;18.25;98.25;100253.13;5013888;28;20834;-71
2023/07/01 06:09:47;;;;;;;8.03;3.40;;;;;;;18.35;95.40;100255.28;5013577;28;20452;-69
2023/07/01 06:12:14;;;;;;;8.40;3.60;;;;;;;18.47;95.50;100252.41;5013837;28;20433;-71
2023/07/01 06:14:40;;;;;;;8.23;3.80;;;;;;;18.55;94.92;100245.06;5012940;28;20795;-73
2023/07/01 06:17:07;;;;;;;8.47;3.57;;;;;;;18.63;92.37;100249.53;5013612;28;20483;-73
2023/07/01 06:19:35;;;;;;;8.40;3.60;;;;;;;18.68;92.42;100251.97;5013315;28;20480;-72
2023/07/01 06:22:02;;;;;;;7.23;3.40;;;;;;;18.76;92.32;100253.75;5013586;28;20440;-71
2023/07/01 06:24:29;;;;;;;8.03;3.40;;;;;;;18.81;90.33;100247.94;5013668;28;20956;-72
2023/07/01 06:26:55;;;;;;;8.17;3.20;;;;;;;18.91;89.88;100246.56;5013707;28;20512;-71
2023/07/01 06:29:22;;;;;;;6.77;2.80;;;;;;;18.88;89.12;100244.53;5030735;23;20510;-71
2023/07/01 06:31:48;;;;;;;7.37;3.23;;;;;;;18.93;91.18;100240.69;5013120;28;20480;-71
2023/07/01 06:34:16;;;;;;;7.07;3.10;;;;;;;18.97;91.95;100238.81;5013026;28;20440;-71
2023/07/01 06:36:45;;;;;;;7.67;3.40;;;;;;;19.02;88.64;100241.25;5013287;28;20498;-69
2023/07/01 06:39:12;;;;;;;6.50;2.70;;;;;;;19.11;87.33;100236.31;5012971;28;20466;-71
2023/07/01 06:41:38;;;;;;;9.30;3.17;;;;;;;19.16;86.84;100228.53;5012877;28;20444;-71
2023/07/01 06:44:05;;;;;;;7.67;2.70;;;;;;;19.24;86.51;100231.41;5013253;28;20450;-71
2023/07/01 06:46:32;;;;;;;8.07;2.70;;;;;;;19.27;88.42;100227.94;5013240;28;20440;-71
2023/07/01 06:48:58;;;;;;;7.30;3.10;;;;;;;19.34;87.61;100233.53;5013140;28;20554;-68
2023/07/01 06:51:25;;;;;;;7.80;3.37;;;;;;;19.42;84.70;100233.25;5012803;28;21006;-71
2023/07/01 06:53:53;;;;;;;6.57;2.47;;;;;;;19.56;85.51;100231.88;5013308;28;20447;-71
2023/07/01 06:56:19;;;;;;;7.70;3.10;;;;;;;19.60;85.29;100224.50;5013115;28;20448;-71
2023/07/01 06:58:46;;;;;;;7.30;2.80;;;;;;;19.71;84.39;100219.97;5012668;28;20468;-71
2023/07/01 07:01:12;;;;;;;6.40;2.43;;;;;;;19.77;81.62;100218.47;5013133;28;20831;-71
2023/07/01 07:03:40;;;;;;;6.03;2.40;;;;;;;19.91;80.66;100218.66;5013003;28;20447;-71
2023/07/01 07:06:07;;;;;;;13.47;2.67;;;;;;;20.02;81.16;100218.03;5013013;28;20822;-71
2023/07/01 07:08:33;;;;;;;7.50;2.73;;;;;;;20.06;81.28;100222.41;5012822;28;20466;-71
2023/07/01 07:11:01;;;;;;;6.33;2.80;;;;;;;20.14;81.71;100221.34;5012892;28;20515;-71
2023/07/01 07:13:28;;;;;;;6.50;2.50;;;;;;;20.27;76.44;100221.06;5012953;28;20448;-71
2023/07/01 07:15:55;;;;;;;5.30;1.90;;;;;;;20.22;75.22;100216.69;5012647;28;20491;-71
2023/07/01 07:18:21;;;;;;;6.37;2.33;;;;;;;20.31;73.18;100222.69;5012912;28;20495;-71
2023/07/01 07:20:48;;;;;;;5.87;2.43;;;;;;;20.39;73.69;100210.59;5012744;28;20484;-71
2023/07/01 07:23:14;;;;;;;6.33;2.20;;;;;;;20.42;74.85;100214.56;5012860;28;20488;-71
2023/07/01 07:25:41;;;;;;;7.27;2.20;;;;;;;20.48;71.47;100213.06;5013518;28;20534;-71
2023/07/01 07:28:09;;;;;;;5.47;2.00;;;;;;;20.52;72.72;100207.63;5016437;28;20480;-71
2023/07/01 07:30:37;;;;;;;5.73;1.77;;;;;;;20.58;65.62;100212.38;5016584;28;20507;-71
2023/07/01 07:33:03;;;;;;;6.53;2.50;;;;;;;20.64;66.53;100210.09;5016458;28;20447;-73
2023/07/01 07:35:30;;;;;;;6.00;2.00;;;;;;;20.73;69.03;100207.03;5015253;28;20481;-73
2023/07/01 07:37:57;;;;;;;5.30;1.60;;;;;;;20.79;68.30;100211.81;5016567;28;20578;-74
2023/07/01 07:40:23;;;;;;;7.03;1.80;;;;;;;20.80;63.82;100207.09;5016141;28;20506;-73
2023/07/01 07:42:52;;;;;;;5.70;2.03;;;;;;;20.75;61.69;100199.97;5017091;28;20448;-71
2023/07/01 07:45:20;;;;;;;5.93;1.80;;;;;;;20.75;61.04;100205.47;5016241;28;20444;-71
2023/07/01 07:47:47;;;;;;;6.03;2.07;;;;;;;20.85;63.34;100198.47;5016233;28;20526;-72
2023/07/01 07:50:14;;;;;;;5.40;1.80;;;;;;;20.92;58.66;100198.56;5016217;28;20452;-75
2023/07/01 07:52:41;;;;;;;5.47;1.40;;;;;;;20.98;57.83;100199.75;5015829;28;20483;-74
2023/07/01 07:55:08;;;;;;;5.33;1.70;;;;;;;21.02;61.82;100205.31;5016231;28;20543;-72
2023/07/01 07:57:34;;;;;;;9.30;1.57;;;;;;;21.07;58.16;100194.75;5016185;28;20475;-75
2023/07/01 08:00:01;;;;;;;4.60;1.20;;;;;;;21.09;63.28;100191.59;5016185;28;20827;-73
2023/07/01 08:02:29;;;;;;;4.83;1.23;;;;;;;21.15;55.38;100193.59;5016161;28;20436;-72
2023/07/01 08:04:56;;;;;;;5.30;1.40;;;;;;;21.13;58.42;100190.47;5015836;28;20538;-71
2023/07/01 08:07:23;;;;;;;4.80;1.20;;;;;;;21.27;58.93;100187.00;5015800;28;20454;-71
2023/07/01 08:09:49;;;;;;;5.80;1.50;;;;;;;;;;5015944;28;20488;-73
2023/07/01 08:12:16;;;;;;;4.73;1.50;;;;;;;21.33;56.47;100185.50;5015964;28;20603;-73
2023/07/01 08:14:42;;;;;;;4.90;1.43;;;;;;;21.36;59.58;100181.97;5016235;28;20438;-73
2023/07/01 08:17:09;;;;;;;5.20;1.33;;;;;;;21.34;55.94;100184.34;5015935;28;20535;-73
2023/07/01 08:19:37;;;;;;;4.60;1.20;;;;;;;21.39;54.48;100177.69;5015801;28;20514;-72
2023/07/01 08:22:04;;;;;;;8.27;1.67;;;;;;;21.51;54.85;100179.31;5015733;28;20444;-73
2023/07/01 08:24:31;;;;;;;5.00;1.20;;;;;;;21.54;52.19;100184.06;5015475;28;21017;-72
2023/07/01 08:26:59;;;;;;;4.60;1.20;;;;;;;21.56;52.84;100174.25;5015819;28;20466;-71
2023/07/01 08:29:26;;;;;;;5.27;0.97;;;;;;;21.60;54.73;100175.06;5015523;28;20482;-72
2023/07/01 08:31:52;;;;;;;4.90;1.13;;;;;;;21.62;53.43;100175.44;5015546;28;20483;-72
2023/07/01 08:34:19;;;;;;;5.30;1.30;;;;;;;21.70;52.17;100172.72;5015598;28;20812;-72
2023/07/01 08:36:47;;;;;;;4.27;0.80;;;;;;;21.78;51.54;100158.59;5015527;28;20441;-71
2023/07/01 08:39:13;;;;;;;5.17;1.20;;;;;;;21.80;51.46;100161.75;5014514;28;20539;-71
2023/07/01 08:41:46;;;;;;;4.30;0.97;;;;;;;21.72;50.60;100162.09;5015414;28;20533;-72
2023/07/01 08:44:13;;;;;;;4.27;0.87;;;;;;;21.82;50.12;100151.09;5015402;28;20428;-71
2023/07/01 08:46:41;;;;;;;6.40;1.63;;;;;;;21.87;51.38;100152.72;5015338;28;20444;-71
2023/07/01 08:49:08;;;;;;;4.50;1.10;;;;;;;21.97;51.57;100145.66;5015182;28;20488;-72
2023/07/01 08:51:41;;;;;;;5.93;1.77;;;;;;;21.97;50.89;100142.91;5015138;28;20510;-71
2023/07/01 08:54:12;;;;;;;4.77;1.10;;;;;;;22.14;52.82;100153.22;5015194;28;20519;-72
2023/07/01 08:56:39;;;;;;;4.70;1.30;;;;;;;22.13;53.29;100144.16;5014882;28;20900;-71
2023/07/01 08:59:06;;;;;;;5.17;1.10;;;;;;;22.26;50.40;100136.28;5014724;28;20468;-71
2023/07/01 09:01:33;;;;;;;5.00;1.50;;;;;;;22.26;51.24;100130.75;5014773;28;21051;-71
2023/07/01 09:04:01;;;;;;;5.93;1.90;;;;;;;22.35;50.76;100136.69;5015095;28;20917;-72
2023/07/01 09:06:28;;;;;;;5.50;1.30;;;;;;;22.42;52.96;100131.19;5014980;28;20446;-72
2023/07/01 09:08:55;;;;;;;4.60;1.07;;;;;;;22.55;50.67;100130.81;5014389;28;20464;-70
2023/07/01 09:11:23;;;;;;;4.73;1.43;;;;;;;22.61;49.35;100124.50;5014729;28;20554;-72
2023/07/01 09:13:55;;;;;;;5.00;1.60;;;;;;;22.64;49.05;100117.41;5014552;28;20487;-71
2023/07/01 09:16:32;;;;;;;5.53;1.73;;;;;;;22.60;48.72;100116.63;5014809;28;20416;-71
2023/07/01 09:19:04;;;;;;;5.73;1.43;;;;;;;22.63;51.24;100110.31;5014350;28;20818;-71
2023/07/01 09:21:32;;;;;;;4.57;1.20;;;;;;;22.78;51.26;100109.13;5014931;28;20462;-71
2023/07/01 09:23:59;;;;;;;4.40;1.10;;;;;;;22.88;52.55;100105.53;5014648;28;20448;-73
2023/07/01 09:26:30;;;;;;;4.63;1.40;;;;;;;22.91;49.90;100102.03;5014593;28;20523;-70
2023/07/01 09:28:58;;;;;;;4.73;1.47;;;;;;;22.99;52.40;100089.00;5014081;28;20488;-70
2023/07/01 09:31:25;;;;;;;7.30;1.90;;;;;;;22.98;54.73;100092.97;5014123;28;20520;-69
2023/07/01 09:34:00;;;;;;;6.43;2.07;;;;;;;23.09;49.75;100092.91;5014123;28;20444;-70
2023/07/01 09:36:28;;;;;;;4.83;1.33;;;;;;;23.14;48.50;100098.81;5013777;28;20956;-70
2023/07/01 09:38:55;;;;;;;5.40;1.53;;;;;;;23.13;49.63;100090.94;5014265;28;20547;-70
2023/07/01 09:41:26;;;;;;;4.50;1.00;;;;;;;23.29;48.82;100088.53;5013970;28;20451;-70
2023/07/01 09:43:56;;;;;;;5.07;1.70;;;;;;;23.32;48.59;100090.47;5014567;28;20438;-70
2023/07/01 09:46:23;;;;;;;5.10;1.67;;;;;;;23.38;51.00;100088.13;5014510;28;20472;-70
2023/07/01 09:48:52;;;;;;;5.77;1.73;;;;;;;23.46;50.10;100073.06;5013357;28;20460;-70
2023/07/01 09:51:18;;;;;;;4.90;1.40;;;;;;;23.54;49.96;100082.13;5013364;28;20483;-70
2023/07/01 09:53:45;;;;;;;7.33;1.73;;;;;;;23.64;50.36;100076.59;5014376;28;20825;-70
2023/07/01 09:56:14;;;;;;;5.10;1.57;;;;;;;23.78;49.22;100074.94;5014033;28;20470;-70
2023/07/01 09:58:42;;;;;;;7.70;1.43;;;;;;;23.87;49.97;100058.69;5013992;28;20477;-70
2023/07/01 10:01:11;;;;;;;5.00;1.40;;;;;;;23.92;49.11;100069.31;5013959;28;20440;-70
2023/07/01 10:03:38;;;;;;;4.87;1.57;;;;;;;24.02;48.83;100070.44;5013963;28;20468;-70
2023/07/01 10:06:06;;;;;;;4.90;1.63;;;;;;;23.91;47.58;100051.94;5013812;28;20470;-70
2023/07/01 10:08:33;;;;;;;4.37;1.30;;;;;;;23.87;50.29;100065.00;5013825;28;20513;-70
2023/07/01 10:11:04;;;;;;;4.40;1.43;;;;;;;23.98;50.42;100058.59;5013506;28;20498;-70
2023/07/01 10:13:34;;;;;;;5.20;1.40;;;;;;;23.82;51.06;100053.56;5013515;28;20439;-70
2023/07/01 10:16:03;;;;;;;5.03;1.70;;;;;;;23.86;50.38;100049.59;5013701;28;20472;-71
2023/07/01 10:18:31;;;;;;;16.50;1.60;;;;;;;23.86;52.35;100043.25;5013395;28;21003;-71
2023/07/01 10:21:27;;;;;;;6.20;1.77;;;;;;;24.12;49.47;100052.97;5013645;28;20527;-71
2023/07/01 10:23:55;;;;;;;5.23;1.40;;;;;;;24.31;49.21;100035.84;5013539;28;20448;-71
2023/07/01 10:26:36;;;;;;;4.33;1.33;;;;;;;24.40;51.20;100038.94;5013207;28;20535;-71
2023/07/01 10:29:36;;;;;;;6.47;1.63;;;;;;;24.57;49.11;100033.63;5013104;28;20483;-72
2023/07/01 10:32:33;;;;;;;4.87;1.50;;;;;;;24.62;49.00;100022.13;5000530;28;20566;-72
2023/07/01 10:35:13;;;;;;;5.20;1.53;;;;;;;24.79;49.13;100021.19;5013618;28;20460;-72
2023/07/01 10:37:40;;;;;;;5.20;1.50;;;;;;;24.94;49.53;100007.94;5013245;28;20444;-71
2023/07/01 10:40:40;;;;;;;7.33;2.20;;;;;;;24.89;45.52;100005.63;5013383;28;20440;-72
2023/07/01 10:43:24;;;;;;;4.67;1.20;;;;;;;24.60;47.29;100010.66;5008355;28;20543;-71
2023/07/01 10:46:10;;;;;;;4.70;1.30;;;;;;;24.42;48.88;100006.09;5013285;28;20444;-72
2023/07/01 10:48:38;;;;;;;5.57;1.87;;;;;;;24.15;49.80;99994.81;5012737;28;20484;-71
2023/07/01 10:51:06;;;;;;;4.77;1.60;;;;;;;24.05;49.10;99998.47;5012826;28;20450;-71
2023/07/01 10:53:58;;;;;;;4.77;1.30;;;;;;;24.02;51.53;99990.97;5013211;28;20483;-71
2023/07/01 10:56:25;;;;;;;6.07;1.70;;;;;;;24.14;49.29;99984.16;5013348;28;20423;-71
2023/07/01 10:59:21;;;;;;;5.63;1.80;;;;;;;24.39;51.37;99981.19;5013199;28;20460;-71
2023/07/01 11:01:50;;;;;;;5.27;1.73;;;;;;;24.63;51.58;99976.63;5016049;28;20440;-75
2023/07/01 11:04:18;;;;;;;5.00;1.83;;;;;;;24.74;49.78;99988.34;5017274;28;20475;-75
2023/07/01 11:06:51;;;;;;;5.13;1.70;;;;;;;24.69;49.73;99977.72;5017013;28;20487;-76
2023/07/01 11:09:28;;;;;;;4.73;1.37;;;;;;;24.62;50.48;99978.59;5020022;28;20460;-77
2023/07/01 11:11:55;;;;;;;8.60;2.40;;;;;;;24.82;50.48;99962.16;5017579;28;20472;-70
2023/07/01 11:14:31;;;;;;;4.97;1.73;;;;;;;25.06;49.22;99954.75;5017061;28;20448;-71
2023/07/01 11:17:06;;;;;;;5.77;1.60;;;;;;;25.32;50.92;99961.56;5017122;28;20432;-71
2023/07/01 11:19:33;;;;;;;4.90;1.50;;;;;;;25.67;48.40;99948.38;5016946;28;20455;-72
2023/07/01 11:22:01;;;;;;;4.63;1.43;;;;;;;25.98;46.22;99953.88;5016955;28;20531;-71
2023/07/01 11:24:29;;;;;;;4.30;1.30;;;;;;;25.97;45.45;99957.88;5016896;28;20444;-71
2023/07/01 11:27:01;;;;;;;4.70;1.37;;;;;;;25.81;46.27;99942.66;5016566;28;20510;-72
2023/07/01 11:29:28;;;;;;;5.07;1.40;;;;;;;26.00;47.00;99952.25;5016646;28;20480;-72
2023/07/01 11:31:59;;;;;;;5.20;1.70;;;;;;;26.21;46.23;99937.22;5016685;28;20904;-72
2023/07/01 11:34:26;;;;;;;5.30;1.40;;;;;;;26.12;46.49;99943.34;5016375;28;20499;-71